createdAt,value
2018-08-04T00:01:21.132Z,20.50
2018-08-04T00:03:49.465Z,20.50
2018-08-04T00:06:17.784Z,20.30
2018-08-04T00:08:46.081Z,20.40
2018-08-04T00:11:14.464Z,20.60
2018-08-04T00:13:42.748Z,20.60
2018-08-04T00:16:11.125Z,20.70
2018-08-04T00:18:39.453Z,20.90
2018-08-04T00:21:07.753Z,20.80
2018-08-04T00:23:36.067Z,20.50
2018-08-04T00:26:04.404Z,20.10
2018-08-04T00:28:32.771Z,19.90
2018-08-04T00:31:01.093Z,19.60
2018-08-04T00:33:29.412Z,19.30
2018-08-04T00:35:57.753Z,19.20
2018-08-04T00:38:26.083Z,19.30
2018-08-04T00:40:54.404Z,19.40
2018-08-04T00:43:22.701Z,19.60
2018-08-04T00:45:50.998Z,19.80
2018-08-04T00:48:19.304Z,19.90
2018-08-04T00:50:47.626Z,20.10
2018-08-04T00:53:15.958Z,20.10
2018-08-04T00:55:44.324Z,20.10
2018-08-04T01:00:40.745Z,19.90
2018-08-04T01:03:09.061Z,19.90
2018-08-04T01:05:37.393Z,19.80
2018-08-04T01:08:05.706Z,19.80
2018-08-04T01:10:34.050Z,19.60
2018-08-04T01:13:02.354Z,19.60
2018-08-04T01:15:30.668Z,19.60
2018-08-04T01:17:59.017Z,19.60
2018-08-04T01:20:27.329Z,19.60
2018-08-04T01:22:55.661Z,19.50
2018-08-04T01:25:23.958Z,19.40
2018-08-04T01:27:52.257Z,19.20
2018-08-04T01:30:20.561Z,19.10
2018-08-04T01:32:48.861Z,19.00
2018-08-04T01:35:17.215Z,19.00
2018-08-04T01:37:45.532Z,19.00
2018-08-04T01:40:13.869Z,19.10
2018-08-04T01:42:42.169Z,19.00
2018-08-04T01:45:10.539Z,19.00
2018-08-04T01:47:38.861Z,19.00
2018-08-04T01:50:07.238Z,19.00
2018-08-04T01:52:35.570Z,19.00
2018-08-04T01:55:03.883Z,19.00
2018-08-04T01:57:32.332Z,18.90
2018-08-04T02:00:00.653Z,19.00
2018-08-04T02:02:29.006Z,18.90
2018-08-04T02:04:57.346Z,18.90
2018-08-04T02:07:25.689Z,18.90
2018-08-04T02:09:54.069Z,18.90
2018-08-04T02:12:22.413Z,18.90
2018-08-04T02:14:50.806Z,18.80
2018-08-04T02:17:19.148Z,18.80
2018-08-04T02:19:47.456Z,18.80
2018-08-04T02:22:15.747Z,18.80
2018-08-04T02:24:44.121Z,18.70
2018-08-04T02:29:40.473Z,18.60
2018-08-04T02:32:08.768Z,18.60
2018-08-04T02:34:37.073Z,18.60
2018-08-04T02:37:05.622Z,18.60
2018-08-04T02:39:33.925Z,18.60
2018-08-04T02:42:02.254Z,18.60
2018-08-04T02:44:30.602Z,18.70
2018-08-04T02:46:58.918Z,18.70
2018-08-04T02:49:27.266Z,18.60
2018-08-04T02:51:55.594Z,18.60
2018-08-04T02:54:23.908Z,18.40
2018-08-04T02:56:52.206Z,18.30
2018-08-04T02:59:20.531Z,18.30
2018-08-04T03:01:49.735Z,18.10
2018-08-04T03:04:18.115Z,18.20
2018-08-04T03:06:46.469Z,18.20
2018-08-04T03:09:14.778Z,18.30
2018-08-04T03:11:43.129Z,18.30
2018-08-04T03:14:11.480Z,18.40
2018-08-04T03:16:39.793Z,18.50
2018-08-04T03:19:08.118Z,18.50
2018-08-04T03:21:36.443Z,18.50
2018-08-04T03:24:04.773Z,18.50
2018-08-04T03:26:33.130Z,18.40
2018-08-04T03:29:01.427Z,18.40
2018-08-04T03:31:29.738Z,18.40
2018-08-04T03:33:58.032Z,18.40
2018-08-04T03:36:26.344Z,18.50
2018-08-04T03:38:54.739Z,18.60
2018-08-04T03:41:23.079Z,18.70
2018-08-04T03:43:51.871Z,18.80
2018-08-04T03:46:20.145Z,18.80
2018-08-04T03:48:48.464Z,18.80
2018-08-04T03:51:16.796Z,18.60
2018-08-04T03:53:45.113Z,18.60
2018-08-04T03:56:13.465Z,18.40
2018-08-04T03:58:41.753Z,18.20
2018-08-04T04:01:10.073Z,18.10
2018-08-04T04:06:06.406Z,18.10
2018-08-04T04:08:34.738Z,18.00
2018-08-04T04:11:03.057Z,18.10
2018-08-04T04:13:31.379Z,18.00
2018-08-04T04:15:59.702Z,18.00
2018-08-04T04:18:28.018Z,18.00
2018-08-04T04:20:56.349Z,17.90
2018-08-04T04:23:24.649Z,18.00
2018-08-04T04:25:52.965Z,18.00
2018-08-04T04:28:21.306Z,18.00
2018-08-04T04:33:17.692Z,18.00
2018-08-04T04:35:46.011Z,18.00
2018-08-04T04:38:14.367Z,18.30
2018-08-04T04:40:42.713Z,18.40
2018-08-04T04:43:11.029Z,18.40
2018-08-04T04:45:39.358Z,18.50
2018-08-04T04:48:07.643Z,18.50
2018-08-04T04:50:35.966Z,18.50
2018-08-04T04:53:04.314Z,18.70
2018-08-04T04:55:32.626Z,18.80
2018-08-04T04:58:00.975Z,18.70
2018-08-04T05:00:29.283Z,18.80
2018-08-04T05:02:57.563Z,19.00
2018-08-04T05:05:25.884Z,19.20
2018-08-04T05:07:54.226Z,19.20
2018-08-04T05:10:22.555Z,19.30
2018-08-04T05:12:50.905Z,19.40
2018-08-04T05:15:19.208Z,19.50
2018-08-04T05:17:47.530Z,19.60
2018-08-04T05:20:15.870Z,19.50
2018-08-04T05:22:44.214Z,19.30
2018-08-04T05:27:40.576Z,19.20
2018-08-04T05:30:09.032Z,19.20
2018-08-04T05:32:37.388Z,18.90
2018-08-04T05:35:05.709Z,19.00
2018-08-04T05:37:34.045Z,19.10
2018-08-04T05:40:02.409Z,19.30
2018-08-04T05:42:30.777Z,19.50
2018-08-04T05:44:59.109Z,19.60
2018-08-04T05:47:27.506Z,19.90
2018-08-04T05:49:55.882Z,20.20
2018-08-04T05:52:24.121Z,20.50
2018-08-04T05:54:52.458Z,20.80
2018-08-04T05:57:20.760Z,21.00
2018-08-04T05:59:49.069Z,21.20
2018-08-04T06:02:17.401Z,21.30
2018-08-04T06:04:45.754Z,21.50
2018-08-04T06:07:14.395Z,21.80
2018-08-04T06:09:42.697Z,22.40
2018-08-04T06:12:10.993Z,22.60
2018-08-04T06:14:39.318Z,23.10
2018-08-04T06:17:07.612Z,23.60
2018-08-04T06:19:35.947Z,23.90
2018-08-04T06:22:04.299Z,24.20
2018-08-04T06:24:32.556Z,24.40
2018-08-04T06:27:00.868Z,24.80
2018-08-04T06:29:29.223Z,25.30
2018-08-04T06:31:57.637Z,25.50
2018-08-04T06:34:25.944Z,25.80
2018-08-04T06:36:54.628Z,26.00
2018-08-04T06:39:22.932Z,26.20
2018-08-04T06:41:51.207Z,26.10
2018-08-04T06:44:19.543Z,26.20
2018-08-04T06:46:48.061Z,26.20
2018-08-04T06:51:44.422Z,25.80
2018-08-04T06:54:12.759Z,25.70
2018-08-04T06:56:41.148Z,25.70
2018-08-04T06:59:09.461Z,25.80
2018-08-04T07:01:37.824Z,26.20
2018-08-04T07:04:06.150Z,26.50
2018-08-04T07:06:34.424Z,26.80
2018-08-04T07:09:02.727Z,27.30
2018-08-04T07:11:31.187Z,28.30
2018-08-04T07:13:59.528Z,29.20
2018-08-04T07:16:27.931Z,29.70
2018-08-04T07:18:56.474Z,29.80
2018-08-04T07:21:24.787Z,29.50
2018-08-04T07:23:53.090Z,29.00
2018-08-04T07:26:21.425Z,28.40
2018-08-04T07:28:49.738Z,28.20
2018-08-04T07:31:18.052Z,28.90
2018-08-04T07:36:14.416Z,30.30
2018-08-04T07:38:42.735Z,30.90
2018-08-04T07:41:11.131Z,30.90
2018-08-04T07:43:39.420Z,30.80
2018-08-04T07:46:07.737Z,31.20
2018-08-04T07:48:36.037Z,31.20
2018-08-04T07:51:04.368Z,31.40
2018-08-04T07:53:32.722Z,31.40
2018-08-04T07:56:01.006Z,31.20
2018-08-04T07:58:29.335Z,31.20
2018-08-04T08:00:57.695Z,31.40
2018-08-04T08:03:26.040Z,31.70
2018-08-04T08:05:56.705Z,32.20
2018-08-04T08:08:25.001Z,32.30
2018-08-04T08:10:53.495Z,32.30
2018-08-04T08:13:21.834Z,32.60
2018-08-04T08:15:50.144Z,32.60
2018-08-04T08:18:18.504Z,32.60
2018-08-04T08:20:47.816Z,32.90
2018-08-04T08:23:16.299Z,32.80
2018-08-04T08:25:55.970Z,33.00
2018-08-04T08:28:24.345Z,33.20
2018-08-04T08:30:52.670Z,33.10
2018-08-04T08:33:20.986Z,33.20
2018-08-04T08:35:49.314Z,33.50
2018-08-04T08:38:18.263Z,33.60
2018-08-04T08:40:46.762Z,33.20
2018-08-04T08:43:15.110Z,32.50
2018-08-04T08:45:43.509Z,32.70
2018-08-04T08:48:11.866Z,32.40
2018-08-04T08:50:40.198Z,31.70
2018-08-04T08:53:08.581Z,31.20
2018-08-04T08:55:36.810Z,30.80
2018-08-04T08:58:05.530Z,30.60
2018-08-04T09:00:33.832Z,30.50
2018-08-04T09:03:02.186Z,30.80
2018-08-04T09:05:30.538Z,31.30
2018-08-04T09:07:58.978Z,31.30
2018-08-04T09:10:28.369Z,31.20
2018-08-04T09:15:24.742Z,31.30
2018-08-04T09:17:53.176Z,31.60
2018-08-04T09:20:22.616Z,31.70
2018-08-04T09:22:53.182Z,31.50
2018-08-04T09:25:21.525Z,31.20
2018-08-04T09:27:49.943Z,31.00
2018-08-04T09:30:18.294Z,30.90
2018-08-04T09:32:47.046Z,30.90
2018-08-04T09:35:16.088Z,30.80
2018-08-04T09:37:46.961Z,30.70
2018-08-04T09:40:16.465Z,30.80
2018-08-04T09:42:48.053Z,30.90
2018-08-04T09:45:16.990Z,31.20
2018-08-04T09:47:47.353Z,31.50
2018-08-04T09:50:15.652Z,31.50
2018-08-04T09:52:44.017Z,31.40
2018-08-04T09:55:12.669Z,30.90
2018-08-04T09:57:41.637Z,30.90
2018-08-04T10:00:15.940Z,31.10
2018-08-04T10:02:44.228Z,31.40
2018-08-04T10:05:12.596Z,31.70
2018-08-04T10:07:41.489Z,31.80
2018-08-04T10:10:09.918Z,31.50
2018-08-04T10:12:38.342Z,31.50
2018-08-04T10:15:08.012Z,31.60
2018-08-04T10:17:36.330Z,31.80
2018-08-04T10:20:05.242Z,31.90
2018-08-04T10:22:33.547Z,32.30
2018-08-04T10:25:01.893Z,32.10
2018-08-04T10:27:30.212Z,31.80
2018-08-04T10:29:59.046Z,31.60
2018-08-04T10:32:27.454Z,31.50
2018-08-04T10:34:56.205Z,31.10
2018-08-04T10:39:54.309Z,31.50
2018-08-04T10:42:22.628Z,32.00
2018-08-04T10:44:51.286Z,32.00
2018-08-04T10:47:19.614Z,31.80
2018-08-04T10:49:47.967Z,31.90
2018-08-04T10:52:16.317Z,31.60
2018-08-04T10:54:58.790Z,31.60
2018-08-04T10:57:28.018Z,31.40
2018-08-04T11:00:03.873Z,31.40
2018-08-04T11:02:32.285Z,31.70
2018-08-04T11:05:00.722Z,31.80
2018-08-04T11:07:29.054Z,31.40
2018-08-04T11:09:57.382Z,31.30
2018-08-04T11:12:25.764Z,31.40
2018-08-04T11:14:54.081Z,31.20
2018-08-04T11:17:22.417Z,31.60
2018-08-04T11:19:50.713Z,31.70
2018-08-04T11:22:19.096Z,32.00
2018-08-04T11:24:47.421Z,32.00
2018-08-04T11:27:15.782Z,31.90
2018-08-04T11:29:44.143Z,32.30
2018-08-04T11:32:12.440Z,32.50
2018-08-04T11:34:40.819Z,32.70
2018-08-04T11:37:09.113Z,32.70
2018-08-04T11:39:37.442Z,32.80
2018-08-04T11:42:05.751Z,32.90
2018-08-04T11:44:34.063Z,33.10
2018-08-04T11:47:02.395Z,33.10
2018-08-04T11:49:30.732Z,33.00
2018-08-04T11:51:59.100Z,33.10
2018-08-04T11:54:27.397Z,33.00
2018-08-04T11:56:55.705Z,33.00
2018-08-04T11:59:24.015Z,33.40
2018-08-04T12:01:52.361Z,33.70
2018-08-04T12:04:20.679Z,33.70
2018-08-04T12:06:48.989Z,33.50
2018-08-04T12:09:17.306Z,33.50
2018-08-04T12:11:45.636Z,33.50
2018-08-04T12:14:13.968Z,33.60
2018-08-04T12:16:42.520Z,34.00
2018-08-04T12:19:10.907Z,34.30
2018-08-04T12:21:39.242Z,34.00
2018-08-04T12:24:07.525Z,34.00
2018-08-04T12:26:35.880Z,34.30
2018-08-04T12:29:04.189Z,34.10
2018-08-04T12:31:32.540Z,33.70
2018-08-04T12:34:00.889Z,34.10
2018-08-04T12:36:29.217Z,34.00
2018-08-04T12:38:57.545Z,34.10
2018-08-04T12:41:26.027Z,34.50
2018-08-04T12:43:54.398Z,35.10
2018-08-04T12:46:22.746Z,35.20
2018-08-04T12:48:51.062Z,35.80
2018-08-04T12:51:19.374Z,36.20
2018-08-04T12:53:47.722Z,35.40
2018-08-04T12:56:16.076Z,35.20
2018-08-04T12:58:44.517Z,35.80
2018-08-04T13:01:12.908Z,35.90
2018-08-04T13:03:41.180Z,35.90
2018-08-04T13:06:09.554Z,36.60
2018-08-04T13:08:37.893Z,37.10
2018-08-04T13:11:06.289Z,36.80
2018-08-04T13:13:34.658Z,36.90
2018-08-04T13:16:02.974Z,36.70
2018-08-04T13:18:31.344Z,37.30
2018-08-04T13:20:59.673Z,37.00
2018-08-04T13:23:27.986Z,36.90
2018-08-04T13:25:56.328Z,37.30
2018-08-04T13:30:52.765Z,36.70
2018-08-04T13:33:21.377Z,37.10
2018-08-04T13:35:49.728Z,37.70
2018-08-04T13:38:18.057Z,38.40
2018-08-04T13:40:46.667Z,39.10
2018-08-04T13:43:15.082Z,38.60
2018-08-04T13:45:43.465Z,38.80
2018-08-04T13:48:11.836Z,39.00
2018-08-04T13:50:40.637Z,39.30
2018-08-04T13:53:09.008Z,39.00
2018-08-04T13:58:05.658Z,38.70
2018-08-04T14:00:33.960Z,38.20
2018-08-04T14:03:02.253Z,38.30
2018-08-04T14:05:30.539Z,38.50
2018-08-04T14:07:58.826Z,38.90
2018-08-04T14:10:27.155Z,38.40
2018-08-04T14:12:55.474Z,37.70
2018-08-04T14:15:23.821Z,37.90
2018-08-04T14:17:52.182Z,38.80
2018-08-04T14:22:48.643Z,40.50
2018-08-04T14:25:16.916Z,39.70
2018-08-04T14:27:45.289Z,39.10
2018-08-04T14:32:41.645Z,39.20
2018-08-04T14:35:09.991Z,38.10
2018-08-04T14:37:38.325Z,37.80
2018-08-04T14:40:06.795Z,37.90
2018-08-04T14:42:35.113Z,38.10
2018-08-04T14:45:03.493Z,38.90
2018-08-04T14:47:31.883Z,39.60
2018-08-04T14:50:00.211Z,38.70
2018-08-04T14:52:28.527Z,38.10
2018-08-04T14:54:56.896Z,38.70
2018-08-04T14:57:25.242Z,39.10
2018-08-04T14:59:53.561Z,39.80
2018-08-04T15:02:21.871Z,40.60
2018-08-04T15:04:50.232Z,40.70
2018-08-04T15:07:18.557Z,39.20
2018-08-04T15:09:46.918Z,39.10
2018-08-04T15:12:15.230Z,39.10
2018-08-04T15:14:43.561Z,39.00
2018-08-04T15:19:40.019Z,39.20
2018-08-04T15:22:08.435Z,39.20
2018-08-04T15:24:37.740Z,38.60
2018-08-04T15:27:06.049Z,38.40
2018-08-04T15:29:34.365Z,38.30
2018-08-04T15:32:02.771Z,37.60
2018-08-04T15:34:31.147Z,37.90
2018-08-04T15:36:59.494Z,37.00
2018-08-04T15:39:27.827Z,37.30
2018-08-04T15:41:56.203Z,36.90
2018-08-04T15:44:24.529Z,36.60
2018-08-04T15:46:52.881Z,36.70
2018-08-04T15:49:21.192Z,36.70
2018-08-04T15:51:49.557Z,36.60
2018-08-04T15:54:22.355Z,36.00
2018-08-04T15:56:50.713Z,36.10
2018-08-04T15:59:19.218Z,36.60
2018-08-04T16:01:47.671Z,36.90
2018-08-04T16:04:15.994Z,36.60
2018-08-04T16:06:44.340Z,36.30
2018-08-04T16:09:12.787Z,36.10
2018-08-04T16:11:41.977Z,35.50
2018-08-04T16:14:10.530Z,35.60
2018-08-04T16:16:39.662Z,35.40
2018-08-04T16:19:08.083Z,35.00
2018-08-04T16:21:36.463Z,34.70
2018-08-04T16:24:04.791Z,35.50
2018-08-04T16:26:33.104Z,35.50
2018-08-04T16:29:01.448Z,35.50
2018-08-04T16:31:29.798Z,34.80
2018-08-04T16:33:58.137Z,34.50
2018-08-04T16:36:26.453Z,34.70
2018-08-04T16:38:54.792Z,34.90
2018-08-04T16:41:23.133Z,35.30
2018-08-04T16:43:51.728Z,35.20
2018-08-04T16:46:20.046Z,34.90
2018-08-04T16:48:48.388Z,34.40
2018-08-04T16:51:16.701Z,34.10
2018-08-04T16:53:45.030Z,33.50
2018-08-04T16:56:13.434Z,33.50
2018-08-04T16:58:41.754Z,33.70
2018-08-04T17:01:10.329Z,33.40
2018-08-04T17:03:38.658Z,33.10
2018-08-04T17:06:07.009Z,32.90
2018-08-04T17:08:35.345Z,32.90
2018-08-04T17:11:03.679Z,32.80
2018-08-04T17:13:32.005Z,32.40
2018-08-04T17:16:00.316Z,32.00
2018-08-04T17:18:28.667Z,31.90
2018-08-04T17:20:56.958Z,32.10
2018-08-04T17:23:25.272Z,31.90
2018-08-04T17:25:53.782Z,31.60
2018-08-04T17:28:22.101Z,31.40
2018-08-04T17:30:50.420Z,30.80
2018-08-04T17:33:18.774Z,30.50
2018-08-04T17:35:47.089Z,30.20
2018-08-04T17:38:15.428Z,29.90
2018-08-04T17:40:44.426Z,29.60
2018-08-04T17:43:12.722Z,29.40
2018-08-04T17:45:41.217Z,29.20
2018-08-04T17:48:09.520Z,29.00
2018-08-04T17:50:37.989Z,29.00
2018-08-04T17:53:06.309Z,29.10
2018-08-04T17:55:34.614Z,29.00
2018-08-04T17:58:02.995Z,29.00
2018-08-04T18:00:31.295Z,28.90
2018-08-04T18:02:59.636Z,28.70
2018-08-04T18:05:27.939Z,28.60
2018-08-04T18:07:56.222Z,28.60
2018-08-04T18:10:24.532Z,28.50
2018-08-04T18:12:52.859Z,28.40
2018-08-04T18:15:21.170Z,28.40
2018-08-04T18:17:49.476Z,28.30
2018-08-04T18:20:17.769Z,28.30
2018-08-04T18:22:46.230Z,28.20
2018-08-04T18:25:14.549Z,28.10
2018-08-04T18:27:43.146Z,27.90
2018-08-04T18:30:11.511Z,27.80
2018-08-04T18:32:40.363Z,27.70
2018-08-04T18:35:08.682Z,27.70
2018-08-04T18:37:36.978Z,27.40
2018-08-04T18:42:33.841Z,27.30
2018-08-04T18:45:02.259Z,27.20
2018-08-04T18:47:30.600Z,27.10
2018-08-04T18:49:58.949Z,27.00
2018-08-04T18:52:27.235Z,26.90
2018-08-04T18:54:55.554Z,26.90
2018-08-04T18:57:23.915Z,26.90
2018-08-04T18:59:52.310Z,26.70
2018-08-04T19:02:20.722Z,26.80
2018-08-04T19:04:49.097Z,26.50
2018-08-04T19:07:17.441Z,26.40
2018-08-04T19:09:45.792Z,26.30
2018-08-04T19:12:14.108Z,26.20
2018-08-04T19:14:42.430Z,26.00
2018-08-04T19:17:10.806Z,25.90
2018-08-04T19:19:39.216Z,25.80
2018-08-04T19:22:07.548Z,25.90
2018-08-04T19:24:35.924Z,25.90
2018-08-04T19:27:04.238Z,25.80
2018-08-04T19:29:32.559Z,25.80
2018-08-04T19:32:00.884Z,25.70
2018-08-04T19:34:29.244Z,25.70
2018-08-04T19:36:57.592Z,25.60
2018-08-04T19:39:25.902Z,25.50
2018-08-04T19:41:54.234Z,25.40
2018-08-04T19:44:22.630Z,25.30
2018-08-04T19:46:50.984Z,25.30
2018-08-04T19:49:19.316Z,25.30
2018-08-04T19:51:47.670Z,25.20
2018-08-04T19:54:16.021Z,25.10
2018-08-04T19:56:44.353Z,25.10
2018-08-04T19:59:12.665Z,25.00
2018-08-04T20:01:41.053Z,24.90
2018-08-04T20:04:09.419Z,24.90
2018-08-04T20:06:37.825Z,24.80
2018-08-04T20:09:08.342Z,24.90
2018-08-04T20:11:36.725Z,24.60
2018-08-04T20:14:05.095Z,24.60
2018-08-04T20:16:33.382Z,24.60
2018-08-04T20:19:02.037Z,24.60
2018-08-04T20:21:31.022Z,24.60
2018-08-04T20:23:59.380Z,24.70
2018-08-04T20:26:28.353Z,24.70
2018-08-04T20:28:56.705Z,24.70
2018-08-04T20:31:25.046Z,24.60
2018-08-04T20:33:53.387Z,24.60
2018-08-04T20:36:21.726Z,24.60
2018-08-04T20:38:50.258Z,24.50
2018-08-04T20:41:19.017Z,24.50
2018-08-04T20:43:47.342Z,24.60
2018-08-04T20:46:15.696Z,24.50
2018-08-04T20:48:44.096Z,24.50
2018-08-04T20:51:12.446Z,24.40
2018-08-04T20:53:40.798Z,24.40
2018-08-04T20:56:09.245Z,24.30
2018-08-04T20:58:37.564Z,24.20
2018-08-04T21:01:17.168Z,24.00
2018-08-04T21:03:45.482Z,24.00
2018-08-04T21:06:13.810Z,24.10
2018-08-04T21:08:42.174Z,24.20
2018-08-04T21:11:10.467Z,24.20
2018-08-04T21:13:39.228Z,24.20
2018-08-04T21:16:07.624Z,24.10
2018-08-04T21:18:36.005Z,24.00
2018-08-04T21:21:04.382Z,24.00
2018-08-04T21:23:32.921Z,24.00
2018-08-04T21:26:01.241Z,23.90
2018-08-04T21:28:29.632Z,23.80
2018-08-04T21:30:57.981Z,23.70
2018-08-04T21:33:26.456Z,23.70
2018-08-04T21:35:55.456Z,23.60
2018-08-04T21:38:23.766Z,23.60
2018-08-04T21:40:52.140Z,23.60
2018-08-04T21:43:20.455Z,23.60
2018-08-04T21:45:48.883Z,23.40
2018-08-04T21:48:17.337Z,23.40
2018-08-04T21:50:45.647Z,23.50
2018-08-04T21:53:14.008Z,23.40
2018-08-04T21:55:42.368Z,23.40
2018-08-04T21:58:10.795Z,23.40
2018-08-04T22:00:44.473Z,23.30
2018-08-04T22:03:12.815Z,23.20
2018-08-04T22:05:41.122Z,23.30
2018-08-04T22:08:20.632Z,23.20
2018-08-04T22:10:48.948Z,23.20
2018-08-04T22:13:17.337Z,23.10
2018-08-04T22:15:45.663Z,23.10
2018-08-04T22:18:14.010Z,23.20
2018-08-04T22:20:42.380Z,23.20
2018-08-04T22:23:10.857Z,23.20
2018-08-04T22:25:39.229Z,23.10
2018-08-04T22:28:08.265Z,23.00
2018-08-04T22:30:37.373Z,23.00
2018-08-04T22:33:06.392Z,23.00
2018-08-04T22:35:34.714Z,22.90
2018-08-04T22:38:03.049Z,22.80
2018-08-04T22:40:31.371Z,22.80
2018-08-04T22:42:59.674Z,22.80
2018-08-04T22:45:33.990Z,22.70
2018-08-04T22:48:02.286Z,22.70
2018-08-04T22:50:30.615Z,22.70
2018-08-04T22:52:59.009Z,22.70
2018-08-04T22:55:27.301Z,22.60
2018-08-04T22:57:55.661Z,22.60
2018-08-04T23:00:24.010Z,22.50
2018-08-04T23:02:52.310Z,22.60
2018-08-04T23:07:48.729Z,22.40
2018-08-04T23:10:17.036Z,22.40
2018-08-04T23:12:45.317Z,22.30
2018-08-04T23:15:13.722Z,22.30
2018-08-04T23:17:42.054Z,22.30
2018-08-04T23:20:10.383Z,22.30
2018-08-04T23:22:38.756Z,22.30
2018-08-04T23:25:07.114Z,22.40
2018-08-04T23:27:35.432Z,22.30
2018-08-04T23:30:03.752Z,22.20
2018-08-04T23:32:32.064Z,22.20
2018-08-04T23:35:00.377Z,22.10
2018-08-04T23:37:29.106Z,22.10
2018-08-04T23:39:57.440Z,22.10
2018-08-04T23:42:25.734Z,22.10
2018-08-04T23:44:54.137Z,22.10
2018-08-04T23:47:22.491Z,22.00
2018-08-04T23:49:50.921Z,22.00
2018-08-04T23:52:19.205Z,21.80
2018-08-04T23:54:47.515Z,21.80
2018-08-04T23:57:15.821Z,21.80
2018-08-04T23:59:44.198Z,21.80
